This is the latest recevied weather packets stored in our database for station/object KD0MAC. If no packets are shown the sender has not sent any weather packets the latest 10 day(s).
| Time | Temp. | Humidity | Pressure | Rain* | Wind** | Luminosity | Snow |
|---|---|---|---|---|---|---|---|
| 1777156941 | 11.67° C | 69% | 1009.1 hPa | 0 mm | - | 159 W/m² | - |
| 1777156641 | 11.67° C | 70% | 1009.1 hPa | 0 mm | - | 170 W/m² | - |
| 1777156341 | 11.67° C | 70% | 1009.1 hPa | 0 mm | - | 120 W/m² | - |
| 1777156041 | 11.11° C | 70% | 1009.5 hPa | 0 mm | - | 140 W/m² | - |
| 1777155740 | 11.11° C | 71% | 1009.1 hPa | 0 mm | - | 104 W/m² | - |
| 1777155440 | 11.67° C | 70% | 1009.1 hPa | 0 mm | - | 106 W/m² | - |
| 1777155141 | 11.67° C | 68% | 1009.1 hPa | 0 mm | - | 125 W/m² | - |
| 1777154842 | 12.22° C | 67% | 1008.8 hPa | 0 mm | - | 159 W/m² | - |
| 1777154540 | 12.22° C | 67% | 1008.8 hPa | 0 mm | - | 187 W/m² | - |
| 1777154241 | 12.78° C | 66% | 1008.8 hPa | 0 mm | - | 235 W/m² | - |
| 1777153940 | 13.33° C | 64% | 1008.8 hPa | 0 mm | - | 199 W/m² | - |
| 1777153640 | 13.33° C | 64% | 1008.8 hPa | 0 mm | - | 225 W/m² | - |
| 1777153341 | 13.89° C | 61% | 1008.5 hPa | 0 mm | - | 290 W/m² | - |
| 1777153040 | 14.44° C | 61% | 1008.5 hPa | 0 mm | - | 289 W/m² | - |
| 1777152740 | 15.56° C | 58% | 1008.5 hPa | 0 mm | - | 374 W/m² | - |
| 1777152440 | 15.56° C | 59% | 1008.5 hPa | 0 mm | - | 446 W/m² | - |
| 1777152140 | 15° C | 59% | 1008.5 hPa | 0 mm | - | 284 W/m² | - |
| 1777151840 | 15° C | 59% | 1008.5 hPa | 0 mm | - | 284 W/m² | - |
| 1777151540 | 15.56° C | 59% | 1008.5 hPa | 0 mm | - | 258 W/m² | - |
| 1777151240 | 15.56° C | 58% | 1008.5 hPa | 0 mm | - | 263 W/m² | - |
| 1777150940 | 15.56° C | 57% | 1008.5 hPa | 0 mm | - | 258 W/m² | - |
| 1777150640 | 15.56° C | 60% | 1008.5 hPa | 0 mm | - | 535 W/m² | - |
| 1777150341 | 16.11° C | 56% | 1008.5 hPa | 0 mm | - | 194 W/m² | - |
| 1777150041 | 16.67° C | 56% | 1008.5 hPa | 0 mm | - | 273 W/m² | - |
| 1777149740 | 16.11° C | 57% | 1008.5 hPa | 0 mm | - | 319 W/m² | - |
* Rain latest hour (hover to see other rain measurements)
** Current wind speed in m/s (hover to see current wind gust speed)